Terminal Aerodrome Forecast
Issued by NWS

Home | Current Version | Previous Version | Text Only | Print | Product List | Glossary On
Versions: 1 2 3 4 5 6 7 8 9 10 11 12 13 14 15 16 17 18 19 20 21 22 23 24
511
FTUS41 KBUF 230532
TAFIAG
TAF
KIAG 230532Z 2306/2406 20004KT P6SM BKN040
     FM231500 23007KT P6SM BKN040
     FM231900 27011G18KT P6SM BKN025
     FM232300 25012G18KT P6SM OVC035
     FM240000 25012KT P6SM OVC040
     FM240200 26011KT P6SM SCT060=

USA.gov is the U.S. government's official web portal to all federal, state and local government web resources and services.